createdAt,value
2019-05-12T00:04:52.123Z,1003.89
2019-05-12T00:06:51.780Z,1003.93
2019-05-12T00:07:52.010Z,1003.95
2019-05-12T00:17:52.067Z,1004.00
2019-05-12T00:18:52.095Z,1004.01
2019-05-12T00:19:52.124Z,1004.02
2019-05-12T00:20:52.154Z,1004.09
2019-05-12T00:21:52.182Z,1004.08
2019-05-12T00:22:52.209Z,1004.13
2019-05-12T00:23:52.238Z,1004.13
2019-05-12T00:24:52.292Z,1004.14
2019-05-12T00:25:52.296Z,1004.16
2019-05-12T00:28:19.975Z,1004.18
2019-05-12T00:29:20.006Z,1004.17
2019-05-12T00:30:20.031Z,1004.16
2019-05-12T00:31:20.059Z,1004.17
2019-05-12T00:32:20.089Z,1004.20
2019-05-12T00:33:20.116Z,1004.20
2019-05-12T00:35:12.712Z,1004.23
2019-05-12T00:36:12.741Z,1004.29
2019-05-12T00:37:12.771Z,1004.27
2019-05-12T00:38:12.797Z,1004.26
2019-05-12T00:39:12.826Z,1004.24
2019-05-12T00:40:12.854Z,1004.28
2019-05-12T00:41:12.897Z,1004.33
2019-05-12T00:42:12.912Z,1004.28
2019-05-12T00:43:12.938Z,1004.31
2019-05-12T00:44:12.967Z,1004.29
2019-05-12T00:45:12.999Z,1004.32
2019-05-12T00:46:13.025Z,1004.33
2019-05-12T00:47:13.053Z,1004.30
2019-05-12T00:48:13.084Z,1004.35
2019-05-12T00:49:13.110Z,1004.35
2019-05-12T00:50:13.139Z,1004.34
2019-05-12T00:51:13.166Z,1004.32
2019-05-12T00:52:13.195Z,1004.32
2019-05-12T00:53:13.223Z,1004.35
2019-05-12T00:54:13.258Z,1004.37
2019-05-12T00:55:13.278Z,1004.39
2019-05-12T00:56:13.306Z,1004.39
2019-05-12T00:57:13.334Z,1004.38
2019-05-12T00:58:13.363Z,1004.35
2019-05-12T00:59:13.410Z,1004.36
2019-05-12T01:00:13.428Z,1004.35
2019-05-12T01:01:13.449Z,1004.35
2019-05-12T01:02:13.476Z,1004.37
2019-05-12T01:03:13.504Z,1004.39
2019-05-12T01:04:13.532Z,1004.38
2019-05-12T01:05:13.561Z,1004.40
2019-05-12T01:06:13.592Z,1004.41
2019-05-12T01:07:13.616Z,1004.38
2019-05-12T01:08:13.644Z,1004.46
2019-05-12T01:09:13.673Z,1004.47
2019-05-12T01:10:13.701Z,1004.48
2019-05-12T01:11:13.728Z,1004.46
2019-05-12T01:12:13.756Z,1004.50
2019-05-12T01:13:13.784Z,1004.53
2019-05-12T01:14:13.813Z,1004.52
2019-05-12T01:15:13.847Z,1004.54
2019-05-12T01:16:13.869Z,1004.61
2019-05-12T01:17:13.896Z,1004.59
2019-05-12T01:18:13.927Z,1004.61
2019-05-12T01:19:13.974Z,1004.58
2019-05-12T01:20:13.990Z,1004.60
2019-05-12T01:21:14.032Z,1004.61
2019-05-12T01:22:14.060Z,1004.65
2019-05-12T01:23:14.395Z,1004.69
2019-05-12T01:25:14.452Z,1004.66
2019-05-12T01:35:00.665Z,1004.76
2019-05-12T01:59:58.134Z,1004.96
2019-05-12T02:00:56.166Z,1004.95
2019-05-12T02:01:58.100Z,1004.94
2019-05-12T02:02:58.424Z,1005.00
2019-05-12T02:03:58.431Z,1004.97
2019-05-12T02:04:56.280Z,1005.02
2019-05-12T02:05:57.968Z,1004.98
2019-05-12T02:06:57.816Z,1005.03
2019-05-12T02:07:58.319Z,1005.03
2019-05-12T02:08:58.178Z,1005.06
2019-05-12T02:09:58.433Z,1005.12
2019-05-12T02:10:58.133Z,1005.11
2019-05-12T02:11:58.250Z,1005.16
2019-05-12T02:12:59.035Z,1005.16
2019-05-12T02:13:57.978Z,1005.17
2019-05-12T02:14:58.423Z,1005.22
2019-05-12T02:15:57.862Z,1005.24
2019-05-12T02:16:58.161Z,1005.27
2019-05-12T02:17:58.879Z,1005.30
2019-05-12T02:18:58.279Z,1005.27
2019-05-12T02:19:58.645Z,1005.32
2019-05-12T02:20:57.687Z,1005.31
2019-05-12T02:21:57.930Z,1005.32
2019-05-12T02:22:58.413Z,1005.27
2019-05-12T02:23:58.317Z,1005.34
2019-05-12T02:24:58.413Z,1005.30
2019-05-12T02:25:58.582Z,1005.34
2019-05-12T02:26:57.860Z,1005.32
2019-05-12T02:27:58.388Z,1005.34
2019-05-12T02:28:58.592Z,1005.41
2019-05-12T02:29:58.584Z,1005.44
2019-05-12T02:30:59.011Z,1005.45
2019-05-12T02:31:58.975Z,1005.43
2019-05-12T02:32:59.062Z,1005.48
2019-05-12T02:33:57.099Z,1005.47
2019-05-12T02:34:57.127Z,1005.53
2019-05-12T02:35:57.155Z,1005.54
2019-05-12T02:36:57.187Z,1005.59
2019-05-12T02:37:57.214Z,1005.59
2019-05-12T02:38:57.251Z,1005.63
2019-05-12T02:39:57.269Z,1005.63
2019-05-12T02:40:57.296Z,1005.66
2019-05-12T02:41:57.325Z,1005.67
2019-05-12T02:42:57.354Z,1005.67
2019-05-12T02:43:57.381Z,1005.66
2019-05-12T02:44:57.414Z,1005.70
2019-05-12T02:45:57.452Z,1005.72
2019-05-12T02:46:57.467Z,1005.75
2019-05-12T02:47:57.496Z,1005.71
2019-05-12T02:48:57.528Z,1005.73
2019-05-12T02:49:57.554Z,1005.73
2019-05-12T02:50:57.580Z,1005.73
2019-05-12T02:51:57.610Z,1005.73
2019-05-12T02:52:57.637Z,1005.75
2019-05-12T02:53:57.665Z,1005.73
2019-05-12T02:55:00.678Z,1005.76
2019-05-12T02:55:57.723Z,1005.74
2019-05-12T02:56:57.751Z,1005.79
2019-05-12T02:57:57.785Z,1005.83
2019-05-12T02:58:57.807Z,1005.84
2019-05-12T02:59:57.836Z,1005.82
2019-05-12T03:00:57.865Z,1005.85
2019-05-12T03:01:57.894Z,1005.84
2019-05-12T03:02:57.920Z,1005.89
2019-05-12T03:03:57.950Z,1005.88
2019-05-12T03:04:57.977Z,1005.90
2019-05-12T03:05:58.006Z,1005.91
2019-05-12T03:07:02.041Z,1005.92
2019-05-12T03:07:58.062Z,1005.89
2019-05-12T03:08:58.091Z,1005.91
2019-05-12T03:09:58.120Z,1005.95
2019-05-12T03:10:58.156Z,1006.00
2019-05-12T03:11:58.177Z,1006.00
2019-05-12T03:12:58.209Z,1005.99
2019-05-12T03:13:58.238Z,1006.03
2019-05-12T03:14:58.259Z,1006.04
2019-05-12T03:15:58.289Z,1006.05
2019-05-12T03:16:58.317Z,1006.03
2019-05-12T03:17:58.346Z,1006.03
2019-05-12T03:18:58.378Z,1006.04
2019-05-12T03:19:58.403Z,1006.03
2019-05-12T03:20:58.435Z,1006.01
2019-05-12T03:21:58.459Z,1006.05
2019-05-12T03:22:58.487Z,1005.99
2019-05-12T03:23:58.516Z,1006.04
2019-05-12T03:25:11.279Z,1006.04
2019-05-12T03:25:58.574Z,1006.10
2019-05-12T03:26:58.601Z,1006.08
2019-05-12T03:27:58.628Z,1006.11
2019-05-12T03:28:58.657Z,1006.08
2019-05-12T03:29:58.689Z,1006.12
2019-05-12T03:30:58.743Z,1006.17
2019-05-12T03:31:58.742Z,1006.18
2019-05-12T03:32:58.895Z,1006.24
2019-05-12T03:34:00.496Z,1006.24
2019-05-12T03:34:58.827Z,1006.27
2019-05-12T03:36:01.212Z,1006.25
2019-05-12T03:36:59.693Z,1006.25
2019-05-12T03:37:58.917Z,1006.31
2019-05-12T03:38:58.940Z,1006.32
2019-05-12T03:39:58.969Z,1006.30
2019-05-12T03:40:59.236Z,1006.37
2019-05-12T03:41:59.026Z,1006.32
2019-05-12T03:42:59.053Z,1006.37
2019-05-12T03:43:59.080Z,1006.34
2019-05-12T03:44:59.109Z,1006.38
2019-05-12T03:45:59.139Z,1006.37
2019-05-12T03:46:59.168Z,1006.36
2019-05-12T03:47:59.193Z,1006.40
2019-05-12T03:48:59.223Z,1006.39
2019-05-12T03:49:59.260Z,1006.38
2019-05-12T03:50:59.280Z,1006.41
2019-05-12T03:51:59.334Z,1006.43
2019-05-12T03:52:59.336Z,1006.42
2019-05-12T03:53:59.367Z,1006.45
2019-05-12T03:54:59.393Z,1006.46
2019-05-12T03:55:59.419Z,1006.50
2019-05-12T03:56:59.448Z,1006.52
2019-05-12T03:57:59.483Z,1006.51
2019-05-12T03:58:59.504Z,1006.47
2019-05-12T03:59:59.533Z,1006.49
2019-05-12T04:00:59.561Z,1006.51
2019-05-12T04:01:59.590Z,1006.52
2019-05-12T04:02:59.617Z,1006.52
2019-05-12T04:03:59.646Z,1006.56
2019-05-12T04:04:59.674Z,1006.57
2019-05-12T04:05:59.704Z,1006.57
2019-05-12T04:06:59.737Z,1006.53
2019-05-12T04:07:59.759Z,1006.57
2019-05-12T04:09:00.164Z,1006.57
2019-05-12T04:10:59.869Z,1006.60
2019-05-12T04:11:59.926Z,1006.66
2019-05-12T04:12:59.900Z,1006.68
2019-05-12T04:13:59.930Z,1006.70
2019-05-12T04:14:59.957Z,1006.72
2019-05-12T04:16:00.011Z,1006.69
2019-05-12T04:17:00.015Z,1006.76
2019-05-12T04:18:00.042Z,1006.79
2019-05-12T04:19:00.071Z,1006.82
2019-05-12T04:20:00.101Z,1006.87
2019-05-12T04:21:00.127Z,1006.88
2019-05-12T04:22:00.486Z,1006.89
2019-05-12T04:23:00.209Z,1006.90
2019-05-12T04:24:00.211Z,1006.86
2019-05-12T04:25:00.244Z,1006.89
2019-05-12T04:26:08.421Z,1006.85
2019-05-12T04:27:00.301Z,1006.91
2019-05-12T04:28:00.333Z,1006.89
2019-05-12T04:29:00.355Z,1006.93
2019-05-12T04:30:00.384Z,1006.96
2019-05-12T04:31:00.411Z,1006.94
2019-05-12T04:32:00.439Z,1006.96
2019-05-12T04:33:00.468Z,1007.01
2019-05-12T04:34:00.502Z,1007.03
2019-05-12T04:35:00.524Z,1006.99
2019-05-12T04:36:00.557Z,1006.99
2019-05-12T04:37:00.582Z,1007.00
2019-05-12T04:38:00.611Z,1006.96
2019-05-12T04:39:00.840Z,1007.04
2019-05-12T04:40:00.669Z,1007.07
2019-05-12T04:41:00.696Z,1007.04
2019-05-12T04:42:00.724Z,1007.14
2019-05-12T04:43:00.752Z,1007.10
2019-05-12T04:44:00.781Z,1007.15
2019-05-12T04:45:04.296Z,1007.15
2019-05-12T04:46:00.837Z,1007.14
2019-05-12T04:47:00.867Z,1007.15
2019-05-12T04:48:00.897Z,1007.19
2019-05-12T04:49:00.923Z,1007.16
2019-05-12T04:50:00.953Z,1007.18
2019-05-12T04:51:00.979Z,1007.12
2019-05-12T04:52:04.987Z,1007.18
2019-05-12T04:53:01.036Z,1007.18
2019-05-12T04:54:01.065Z,1007.15
2019-05-12T04:55:04.459Z,1007.19
2019-05-12T04:56:10.770Z,1007.18
2019-05-12T04:57:03.970Z,1007.20
2019-05-12T04:58:04.241Z,1007.21
2019-05-12T04:59:04.700Z,1007.22
2019-05-12T05:00:04.829Z,1007.25
2019-05-12T05:01:01.268Z,1007.24
2019-05-12T05:02:05.130Z,1007.25
2019-05-12T05:03:01.328Z,1007.28
2019-05-12T05:04:01.361Z,1007.32
2019-05-12T05:05:01.382Z,1007.34
2019-05-12T05:06:04.305Z,1007.36
2019-05-12T05:07:04.285Z,1007.37
2019-05-12T05:09:04.838Z,1007.41
2019-05-12T05:10:04.583Z,1007.44
2019-05-12T05:11:03.899Z,1007.45
2019-05-12T05:12:04.417Z,1007.40
2019-05-12T05:13:04.685Z,1007.41
2019-05-12T05:14:04.236Z,1007.41
2019-05-12T05:15:01.685Z,1007.42
2019-05-12T05:16:01.698Z,1007.45
2019-05-12T05:17:05.107Z,1007.43
2019-05-12T05:18:06.040Z,1007.43
2019-05-12T05:19:03.640Z,1007.39
2019-05-12T05:20:03.962Z,1007.41
2019-05-12T05:21:01.841Z,1007.43
2019-05-12T05:22:04.239Z,1007.43
2019-05-12T05:23:03.453Z,1007.46
2019-05-12T05:24:03.787Z,1007.43
2019-05-12T05:25:04.139Z,1007.51
2019-05-12T05:26:03.263Z,1007.52
2019-05-12T05:27:04.343Z,1007.51
2019-05-12T05:28:03.908Z,1007.51
2019-05-12T05:29:04.099Z,1007.51
2019-05-12T05:30:03.974Z,1007.52
2019-05-12T05:31:03.571Z,1007.52
2019-05-12T05:32:03.506Z,1007.54
2019-05-12T05:33:04.543Z,1007.55
2019-05-12T05:34:04.440Z,1007.55
2019-05-12T05:35:03.948Z,1007.56
2019-05-12T05:36:03.500Z,1007.60
2019-05-12T05:37:02.306Z,1007.61
2019-05-12T05:38:04.288Z,1007.62
2019-05-12T05:39:04.331Z,1007.61
2019-05-12T05:40:03.892Z,1007.67
2019-05-12T05:41:05.952Z,1007.67
2019-05-12T05:42:04.467Z,1007.70
2019-05-12T05:43:03.717Z,1007.72
2019-05-12T05:44:03.090Z,1007.71
2019-05-12T05:45:04.648Z,1007.69
2019-05-12T05:46:07.655Z,1007.67
2019-05-12T05:47:04.370Z,1007.68
2019-05-12T05:48:05.592Z,1007.69
2019-05-12T05:49:04.212Z,1007.66
2019-05-12T05:50:04.774Z,1007.73
2019-05-12T05:51:05.654Z,1007.68
2019-05-12T05:52:03.529Z,1007.67
2019-05-12T05:53:03.821Z,1007.68
2019-05-12T05:54:03.947Z,1007.68
2019-05-12T05:55:07.826Z,1007.69
2019-05-12T05:56:04.049Z,1007.72
2019-05-12T05:57:05.481Z,1007.74
2019-05-12T05:58:07.920Z,1007.75
2019-05-12T05:59:04.578Z,1007.76
2019-05-12T06:00:07.321Z,1007.74
2019-05-12T06:01:07.633Z,1007.74
2019-05-12T06:02:04.934Z,1007.74
2019-05-12T06:03:05.381Z,1007.79
2019-05-12T06:04:04.326Z,1007.79
2019-05-12T06:05:04.403Z,1007.83
2019-05-12T06:06:10.788Z,1007.82
2019-05-12T06:07:04.126Z,1007.85
2019-05-12T06:08:04.216Z,1007.88
2019-05-12T06:09:03.750Z,1007.94
2019-05-12T06:10:04.116Z,1007.96
2019-05-12T06:11:04.767Z,1007.94
2019-05-12T06:12:07.564Z,1007.95
2019-05-12T06:13:04.153Z,1007.94
2019-05-12T06:14:11.390Z,1007.99
2019-05-12T06:15:04.210Z,1008.05
2019-05-12T06:16:04.521Z,1008.06
2019-05-12T06:17:04.360Z,1008.07
2019-05-12T06:18:03.881Z,1008.11
2019-05-12T06:19:03.656Z,1008.09
2019-05-12T06:20:04.435Z,1008.07
2019-05-12T06:22:04.011Z,1008.17
2019-05-12T06:23:04.383Z,1008.16
2019-05-12T06:24:03.788Z,1008.22
2019-05-12T06:26:04.612Z,1008.20
2019-05-12T06:27:14.366Z,1008.16
2019-05-12T06:28:06.398Z,1008.19
2019-05-12T06:29:04.384Z,1008.18
2019-05-12T06:30:06.263Z,1008.20
2019-05-12T06:31:04.250Z,1008.24
2019-05-12T06:32:08.125Z,1008.24
2019-05-12T06:33:04.266Z,1008.25
2019-05-12T06:34:06.254Z,1008.27
2019-05-12T06:35:04.680Z,1008.31
2019-05-12T06:38:37.241Z,1008.37
2019-05-12T06:39:34.211Z,1008.40
2019-05-12T06:40:40.216Z,1008.38
2019-05-12T06:41:33.614Z,1008.42
2019-05-12T06:42:34.112Z,1008.44
2019-05-12T06:43:35.268Z,1008.36
2019-05-12T06:44:33.471Z,1008.36
2019-05-12T06:45:33.971Z,1008.48
2019-05-12T06:46:34.271Z,1008.45
2019-05-12T06:48:33.283Z,1008.56
2019-05-12T06:49:33.765Z,1008.52
2019-05-12T06:50:36.980Z,1008.53
2019-05-12T06:52:33.758Z,1008.55
2019-05-12T06:53:33.625Z,1008.52
2019-05-12T06:54:33.528Z,1008.52
2019-05-12T06:55:34.501Z,1008.55
2019-05-12T06:56:34.212Z,1008.53
2019-05-12T06:57:34.259Z,1008.61
2019-05-12T06:58:34.385Z,1008.59
2019-05-12T06:59:33.865Z,1008.57
2019-05-12T07:00:35.038Z,1008.63
2019-05-12T07:01:33.475Z,1008.66
2019-05-12T07:02:37.035Z,1008.64
2019-05-12T07:03:36.921Z,1008.67
2019-05-12T07:04:33.964Z,1008.67
2019-05-12T07:05:37.772Z,1008.72
2019-05-12T07:08:38.289Z,1008.84
2019-05-12T07:09:35.342Z,1008.80
2019-05-12T07:10:39.481Z,1008.80
2019-05-12T07:11:42.571Z,1008.79
2019-05-12T07:18:36.972Z,1008.80
2019-05-12T07:21:27.308Z,1008.88
2019-05-12T07:22:26.023Z,1008.86
2019-05-12T07:23:30.067Z,1008.90
2019-05-12T07:24:25.891Z,1008.89
2019-05-12T07:25:31.273Z,1009.01
2019-05-12T07:27:35.645Z,1008.97
2019-05-12T07:28:30.467Z,1009.04
2019-05-12T07:29:26.039Z,1009.01
2019-05-12T07:30:26.096Z,1009.04
2019-05-12T07:31:26.102Z,1008.96
2019-05-12T07:32:26.158Z,1008.90
2019-05-12T07:35:26.427Z,1008.89
2019-05-12T07:36:26.256Z,1008.98
2019-05-12T07:37:26.288Z,1009.03
2019-05-12T07:38:26.334Z,1009.04
2019-05-12T07:39:26.350Z,1009.05
2019-05-12T07:40:30.031Z,1008.98
2019-05-12T07:41:26.414Z,1009.02
2019-05-12T07:42:31.548Z,1009.12
2019-05-12T07:43:26.474Z,1009.06
2019-05-12T07:44:31.472Z,1009.07
2019-05-12T07:45:26.537Z,1009.15
2019-05-12T07:46:27.976Z,1009.10
2019-05-12T07:47:29.303Z,1009.16
2019-05-12T07:48:26.635Z,1009.26
2019-05-12T07:49:33.948Z,1009.32
2019-05-12T07:50:27.470Z,1009.24
2019-05-12T07:51:30.440Z,1009.39
2019-05-12T07:52:26.758Z,1009.45
2019-05-12T07:53:26.787Z,1009.34
2019-05-12T07:54:29.317Z,1009.45
2019-05-12T07:55:26.871Z,1009.38
2019-05-12T07:56:32.535Z,1009.44
2019-05-12T07:57:26.912Z,1009.42
2019-05-12T07:58:26.940Z,1009.53
2019-05-12T07:59:35.663Z,1009.45
2019-05-12T08:00:27.002Z,1009.47
2019-05-12T08:01:27.033Z,1009.54
2019-05-12T08:02:31.553Z,1009.54
2019-05-12T08:03:27.099Z,1009.57
2019-05-12T08:06:27.190Z,1009.47
2019-05-12T08:07:29.909Z,1009.55
2019-05-12T08:08:27.254Z,1009.66
2019-05-12T08:09:32.524Z,1009.68
2019-05-12T08:10:27.342Z,1009.54
2019-05-12T08:11:28.676Z,1009.56
2019-05-12T08:12:27.608Z,1009.46
2019-05-12T08:13:31.379Z,1009.48
2019-05-12T08:14:29.342Z,1009.40
2019-05-12T08:15:27.498Z,1009.57
2019-05-12T08:16:30.273Z,1009.56
2019-05-12T08:17:27.560Z,1009.47
2019-05-12T08:18:30.631Z,1009.51
2019-05-12T08:20:27.634Z,1009.63
2019-05-12T08:21:27.665Z,1009.56
2019-05-12T08:22:29.414Z,1009.55
2019-05-12T08:23:27.754Z,1009.48
2019-05-12T08:24:27.762Z,1009.45
2019-05-12T08:25:28.917Z,1009.45
2019-05-12T08:26:28.560Z,1009.43
2019-05-12T08:27:27.880Z,1009.46
2019-05-12T08:28:35.779Z,1009.57
2019-05-12T08:30:28.179Z,1009.51
2019-05-12T08:32:28.018Z,1009.66
2019-05-12T08:33:29.615Z,1009.53
2019-05-12T08:34:28.102Z,1009.54
2019-05-12T08:35:34.594Z,1009.65
2019-05-12T08:37:28.202Z,1009.62
2019-05-12T08:38:28.434Z,1009.52
2019-05-12T08:39:28.264Z,1009.55
2019-05-12T08:40:28.497Z,1009.63
2019-05-12T08:41:28.731Z,1009.73
2019-05-12T08:42:28.562Z,1009.70
2019-05-12T08:43:29.511Z,1009.68
2019-05-12T08:44:33.484Z,1009.73
2019-05-12T08:45:33.936Z,1009.70
2019-05-12T08:46:28.695Z,1009.89
2019-05-12T08:47:29.011Z,1009.83
2019-05-12T08:48:28.554Z,1009.87
2019-05-12T08:49:34.035Z,1009.87
2019-05-12T08:50:31.440Z,1009.81
2019-05-12T08:51:28.925Z,1009.82
2019-05-12T08:52:30.775Z,1009.84
2019-05-12T08:53:28.686Z,1009.73
2019-05-12T08:54:28.718Z,1009.90
2019-05-12T08:55:32.495Z,1009.84
2019-05-12T08:56:28.782Z,1009.71
2019-05-12T08:57:34.909Z,1009.79
2019-05-12T08:58:33.652Z,1009.85
2019-05-12T08:59:28.881Z,1009.97
2019-05-12T09:00:28.913Z,1009.95
2019-05-12T09:01:30.756Z,1009.86
2019-05-12T09:02:28.978Z,1009.81
2019-05-12T09:03:30.420Z,1009.84
2019-05-12T09:04:29.085Z,1009.85
2019-05-12T09:05:34.615Z,1009.87
2019-05-12T09:06:29.107Z,1009.89
2019-05-12T09:07:30.389Z,1009.89
2019-05-12T09:08:29.174Z,1009.99
2019-05-12T09:09:29.214Z,1010.04
2019-05-12T09:10:29.239Z,1009.95
2019-05-12T09:11:29.273Z,1009.97
2019-05-12T09:12:29.355Z,1009.91
2019-05-12T09:13:29.337Z,1009.89
2019-05-12T09:14:35.529Z,1009.94
2019-05-12T09:15:29.403Z,1010.01
2019-05-12T09:16:29.436Z,1010.03
2019-05-12T09:17:29.468Z,1010.09
2019-05-12T09:18:35.135Z,1010.03
2019-05-12T09:19:29.535Z,1010.12
2019-05-12T09:20:29.568Z,1010.13
2019-05-12T09:21:34.297Z,1010.14
2019-05-12T09:22:29.631Z,1010.23
2019-05-12T09:23:32.824Z,1010.26
2019-05-12T09:24:29.699Z,1010.30
2019-05-12T09:25:29.730Z,1010.30
2019-05-12T09:26:29.762Z,1010.29
2019-05-12T09:27:29.795Z,1010.21
2019-05-12T09:28:43.611Z,1010.22
2019-05-12T09:29:29.859Z,1010.31
2019-05-12T09:30:29.893Z,1010.30
2019-05-12T09:31:29.925Z,1010.25
2019-05-12T09:32:29.959Z,1010.29
2019-05-12T09:33:34.103Z,1010.19
2019-05-12T09:34:30.024Z,1010.18
2019-05-12T09:35:34.842Z,1010.17
2019-05-12T09:36:30.090Z,1010.18
2019-05-12T09:37:31.027Z,1010.23
2019-05-12T09:38:30.158Z,1010.13
2019-05-12T09:39:34.114Z,1010.18
2019-05-12T09:40:30.222Z,1010.23
2019-05-12T09:41:34.107Z,1010.20
2019-05-12T09:42:30.288Z,1010.24
2019-05-12T09:43:30.328Z,1010.23
2019-05-12T09:44:30.680Z,1010.26
2019-05-12T09:45:30.388Z,1010.31
2019-05-12T09:46:34.331Z,1010.23
2019-05-12T09:47:30.534Z,1010.31
2019-05-12T09:48:30.489Z,1010.36
2019-05-12T09:49:33.316Z,1010.34
2019-05-12T09:51:32.950Z,1010.36
2019-05-12T09:52:30.623Z,1010.39
2019-05-12T09:53:34.250Z,1010.43
2019-05-12T09:54:38.902Z,1010.35
2019-05-12T09:55:30.725Z,1010.52
2019-05-12T09:56:30.758Z,1010.50
2019-05-12T09:57:32.499Z,1010.44
2019-05-12T09:58:30.850Z,1010.33
2019-05-12T09:59:30.858Z,1010.44
2019-05-12T10:00:35.978Z,1010.51
2019-05-12T10:01:35.293Z,1010.49
2019-05-12T10:03:38.318Z,1010.44
2019-05-12T10:04:32.971Z,1010.51
2019-05-12T10:05:38.572Z,1010.45
2019-05-12T10:06:31.099Z,1010.44
2019-05-12T10:07:31.134Z,1010.44
2019-05-12T10:08:35.670Z,1010.37
2019-05-12T10:09:33.437Z,1010.41
2019-05-12T10:10:38.306Z,1010.48
2019-05-12T10:11:31.272Z,1010.47
2019-05-12T10:12:38.814Z,1010.50
2019-05-12T10:13:31.341Z,1010.56
2019-05-12T10:14:31.376Z,1010.64
2019-05-12T10:15:33.188Z,1010.54
2019-05-12T10:16:33.433Z,1010.60
2019-05-12T10:17:33.869Z,1010.68
2019-05-12T10:19:33.904Z,1010.68
2019-05-12T10:20:35.409Z,1010.63
2019-05-12T10:21:31.640Z,1010.73
2019-05-12T10:22:37.785Z,1010.76
2019-05-12T10:23:33.612Z,1010.83
2019-05-12T10:24:40.263Z,1010.92
2019-05-12T10:25:33.905Z,1011.01
2019-05-12T10:26:34.117Z,1011.05
2019-05-12T10:27:34.490Z,1011.03
2019-05-12T10:28:31.923Z,1011.07
2019-05-12T10:29:32.424Z,1011.13
2019-05-12T10:30:34.251Z,1011.08
2019-05-12T10:31:35.803Z,1010.93
2019-05-12T10:32:34.161Z,1011.16
2019-05-12T10:33:33.775Z,1011.16
2019-05-12T10:34:35.808Z,1011.14
2019-05-12T10:35:34.686Z,1011.11
2019-05-12T10:36:33.731Z,1010.43
2019-05-12T10:38:34.406Z,1010.43
2019-05-12T10:39:33.488Z,1011.37
2019-05-12T10:40:33.813Z,1011.36
2019-05-12T10:41:34.240Z,1011.06
2019-05-12T10:42:33.650Z,1011.31
2019-05-12T10:43:34.205Z,1011.24
2019-05-12T10:44:38.566Z,1011.38
2019-05-12T10:45:32.643Z,1011.28
2019-05-12T10:46:32.706Z,1010.59
2019-05-12T10:47:34.324Z,1011.46
2019-05-12T10:48:33.901Z,1011.41
2019-05-12T10:50:34.116Z,1011.40
2019-05-12T10:51:34.356Z,1011.29
2019-05-12T10:52:35.032Z,1011.35
2019-05-12T10:53:34.112Z,1011.35
2019-05-12T10:54:34.242Z,1011.38
2019-05-12T10:55:33.765Z,1011.32
2019-05-12T10:56:34.783Z,1011.42
2019-05-12T10:57:33.422Z,1011.41
2019-05-12T10:58:33.614Z,1011.36
2019-05-12T10:59:38.261Z,1011.37
2019-05-12T11:00:33.737Z,1011.43
2019-05-12T11:01:38.428Z,1011.54
2019-05-12T11:02:33.745Z,1011.51
2019-05-12T11:03:33.803Z,1011.51
2019-05-12T11:04:38.949Z,1011.43
2019-05-12T11:05:34.150Z,1011.52
2019-05-12T11:06:34.046Z,1011.41
2019-05-12T11:07:34.064Z,1011.42
2019-05-12T11:08:33.655Z,1011.44
2019-05-12T11:09:34.536Z,1011.48
2019-05-12T11:10:33.745Z,1011.40
2019-05-12T11:11:42.367Z,1011.44
2019-05-12T11:12:33.836Z,1011.59
2019-05-12T11:13:33.927Z,1011.57
2019-05-12T11:14:34.305Z,1011.49
2019-05-12T11:15:34.616Z,1011.41
2019-05-12T11:17:34.064Z,1011.57
2019-05-12T11:18:34.230Z,1011.58
2019-05-12T11:19:34.382Z,1011.57
2019-05-12T11:20:34.552Z,1011.54
2019-05-12T11:21:34.254Z,1011.52
2019-05-12T11:23:34.628Z,1011.61
2019-05-12T11:28:34.793Z,1011.76
2019-05-12T11:29:45.704Z,1011.77
2019-05-12T11:30:35.392Z,1011.80
2019-05-12T11:31:37.326Z,1011.74
2019-05-12T11:32:37.914Z,1011.75
2019-05-12T11:33:34.794Z,1011.75
2019-05-12T11:34:34.843Z,1011.77
2019-05-12T11:35:34.899Z,1011.80
2019-05-12T11:36:34.936Z,1011.75
2019-05-12T11:37:34.983Z,1011.81
2019-05-12T11:38:35.024Z,1011.65
2019-05-12T11:39:38.686Z,1011.62
2019-05-12T11:40:35.117Z,1011.79
2019-05-12T11:41:35.162Z,1011.86
2019-05-12T11:42:35.351Z,1011.92
2019-05-12T11:43:35.256Z,1011.91
2019-05-12T11:44:35.304Z,1012.01
2019-05-12T11:45:35.348Z,1011.94
2019-05-12T11:46:36.392Z,1011.90
2019-05-12T11:47:37.324Z,1011.85
2019-05-12T11:48:40.447Z,1011.87
2019-05-12T11:49:35.533Z,1011.79
2019-05-12T11:50:40.538Z,1011.89
2019-05-12T11:51:35.626Z,1011.90
2019-05-12T11:52:35.675Z,1011.91
2019-05-12T11:53:35.720Z,1011.93
2019-05-12T11:54:35.766Z,1011.95
2019-05-12T11:55:35.864Z,1011.92
2019-05-12T11:56:40.414Z,1011.85
2019-05-12T11:57:35.904Z,1012.01
2019-05-12T11:58:35.951Z,1011.96
2019-05-12T11:59:36.000Z,1012.03
2019-05-12T12:00:36.046Z,1012.03
2019-05-12T12:01:39.687Z,1011.91
2019-05-12T12:02:36.364Z,1011.92
2019-05-12T12:03:36.186Z,1012.00
2019-05-12T12:04:36.234Z,1011.96
2019-05-12T12:05:38.228Z,1011.94
2019-05-12T12:08:37.378Z,1012.05
2019-05-12T12:09:36.898Z,1012.04
2019-05-12T12:10:39.693Z,1012.09
2019-05-12T12:12:39.566Z,1012.09
2019-05-12T12:14:00.304Z,1012.06
2019-05-12T12:14:40.194Z,1012.04
2019-05-12T12:16:41.963Z,1012.01
2019-05-12T12:18:36.892Z,1012.02
2019-05-12T12:19:43.717Z,1011.40
2019-05-12T12:21:40.397Z,1012.13
2019-05-12T12:24:38.389Z,1012.22
2019-05-12T12:25:37.217Z,1012.17
2019-05-12T12:26:37.437Z,1012.17
2019-05-12T12:27:37.311Z,1012.22
2019-05-12T12:28:37.370Z,1012.30
2019-05-12T12:29:37.408Z,1011.63
2019-05-12T12:30:37.503Z,1012.29
2019-05-12T12:31:38.938Z,1012.23
2019-05-12T12:32:37.547Z,1012.27
2019-05-12T12:33:40.667Z,1012.29
2019-05-12T12:34:37.640Z,1012.39
2019-05-12T12:35:37.687Z,1012.28
2019-05-12T12:36:37.736Z,1012.36
2019-05-12T12:37:37.782Z,1012.39
2019-05-12T12:38:37.828Z,1012.36
2019-05-12T12:39:37.876Z,1012.21
2019-05-12T12:40:37.923Z,1012.25
2019-05-12T12:41:42.663Z,1012.20
2019-05-12T12:42:44.069Z,1012.16
2019-05-12T12:43:38.064Z,1012.19
2019-05-12T12:44:38.144Z,1012.27
2019-05-12T12:45:40.340Z,1012.29
2019-05-12T12:46:38.206Z,1012.29
2019-05-12T12:47:44.413Z,1012.37
2019-05-12T12:48:38.299Z,1012.24
2019-05-12T12:49:39.968Z,1012.10
2019-05-12T12:50:38.393Z,1012.05
2019-05-12T12:51:38.440Z,1012.07
2019-05-12T12:52:43.791Z,1012.13
2019-05-12T12:54:38.807Z,1012.22
2019-05-12T12:56:38.677Z,1012.35
2019-05-12T12:57:40.289Z,1012.34
2019-05-12T12:58:38.995Z,1012.38
2019-05-12T12:59:45.417Z,1012.32
2019-05-12T13:00:47.746Z,1012.23
2019-05-12T13:02:44.116Z,1012.20
2019-05-12T13:07:39.192Z,1012.04
2019-05-12T13:08:39.239Z,1012.19
2019-05-12T13:09:39.287Z,1012.22
2019-05-12T13:10:40.438Z,1012.18
2019-05-12T13:11:39.380Z,1012.31
2019-05-12T13:14:39.517Z,1012.27
2019-05-12T13:15:39.563Z,1012.22
2019-05-12T13:16:39.616Z,1012.19
2019-05-12T13:17:41.767Z,1012.16
2019-05-12T13:18:39.702Z,1012.20
2019-05-12T13:19:39.750Z,1012.30
2019-05-12T13:20:39.794Z,1012.25
2019-05-12T13:21:40.168Z,1012.31
2019-05-12T13:22:39.907Z,1012.21
2019-05-12T13:23:41.103Z,1012.35
2019-05-12T13:24:40.005Z,1012.28
2019-05-12T13:25:48.457Z,1012.17
2019-05-12T13:26:40.272Z,1012.33
2019-05-12T13:27:40.141Z,1012.21
2019-05-12T13:28:45.447Z,1012.22
2019-05-12T13:29:40.233Z,1012.27
2019-05-12T13:31:41.088Z,1012.20
2019-05-12T13:32:40.573Z,1012.11
2019-05-12T13:33:40.397Z,1012.28
2019-05-12T13:34:40.441Z,1012.18
2019-05-12T13:35:40.487Z,1012.24
2019-05-12T13:36:40.533Z,1012.16
2019-05-12T13:37:40.578Z,1012.13
2019-05-12T13:38:40.773Z,1012.16
2019-05-12T13:39:40.671Z,1012.20
2019-05-12T13:40:40.716Z,1012.08
2019-05-12T13:41:40.761Z,1012.19
2019-05-12T13:42:40.835Z,1012.15
2019-05-12T13:43:40.856Z,1012.16
2019-05-12T13:44:40.993Z,1012.12
2019-05-12T13:45:40.948Z,1012.06
2019-05-12T13:46:43.411Z,1012.06
2019-05-12T13:47:41.266Z,1012.03
2019-05-12T13:48:43.312Z,1011.96
2019-05-12T13:49:46.789Z,1012.16
2019-05-12T13:50:43.181Z,1012.18
2019-05-12T13:51:43.056Z,1012.16
2019-05-12T13:52:41.296Z,1012.12